sensor_id;sensor_type;location;lat;lon;timestamp;pressure;altitude;pressure_sealevel;temperature;humidity
55757;BME280;41676;44.610;44.078;2023-02-28T00:00:45;100991.66;;;2.37;82.69
55757;BME280;41676;44.610;44.078;2023-02-28T00:05:46;100975.84;;;2.24;82.97
55757;BME280;41676;44.610;44.078;2023-02-28T00:10:46;100917.56;;;1.93;83.41
55757;BME280;41676;44.610;44.078;2023-02-28T00:15:47;100999.63;;;2.48;83.49
55757;BME280;41676;44.610;44.078;2023-02-28T00:20:48;101015.94;;;2.53;83.31
55757;BME280;41676;44.610;44.078;2023-02-28T00:25:50;101027.31;;;2.66;83.36
55757;BME280;41676;44.610;44.078;2023-02-28T00:30:51;100944.91;;;2.16;83.58
55757;BME280;41676;44.610;44.078;2023-02-28T00:35:51;100996.13;;;2.62;84.15
55757;BME280;41676;44.610;44.078;2023-02-28T00:40:52;100957.19;;;2.56;85.05
55757;BME280;41676;44.610;44.078;2023-02-28T00:45:53;101015.72;;;2.96;85.43
55757;BME280;41676;44.610;44.078;2023-02-28T00:50:54;100948.09;;;2.61;85.59
55757;BME280;41676;44.610;44.078;2023-02-28T00:55:54;100973.50;;;2.73;85.49
55757;BME280;41676;44.610;44.078;2023-02-28T01:00:55;101074.81;;;3.41;85.44
55757;BME280;41676;44.610;44.078;2023-02-28T01:05:56;101017.09;;;3.02;84.81
55757;BME280;41676;44.610;44.078;2023-02-28T01:10:57;101076.56;;;3.28;84.97
55757;BME280;41676;44.610;44.078;2023-02-28T01:15:58;101091.91;;;3.34;85.54
55757;BME280;41676;44.610;44.078;2023-02-28T01:21:14;100906.44;;;2.29;86.28
55757;BME280;41676;44.610;44.078;2023-02-28T01:26:19;101101.59;;;3.47;85.07
55757;BME280;41676;44.610;44.078;2023-02-28T01:31:21;101065.34;;;3.26;84.93
55757;BME280;41676;44.610;44.078;2023-02-28T01:36:23;101092.16;;;3.44;85.36
55757;BME280;41676;44.610;44.078;2023-02-28T01:41:27;101077.00;;;3.35;85.28
55757;BME280;41676;44.610;44.078;2023-02-28T01:46:30;100988.00;;;2.79;85.21
55757;BME280;41676;44.610;44.078;2023-02-28T01:51:48;101011.22;;;2.98;85.43
55757;BME280;41676;44.610;44.078;2023-02-28T01:56:57;101091.50;;;3.40;85.41
55757;BME280;41676;44.610;44.078;2023-02-28T02:02:02;101036.91;;;2.93;84.99
55757;BME280;41676;44.610;44.078;2023-02-28T02:07:03;101068.91;;;3.25;85.07
55757;BME280;41676;44.610;44.078;2023-02-28T02:12:18;101088.03;;;3.40;86.93
55757;BME280;41676;44.610;44.078;2023-02-28T02:17:32;101019.72;;;3.02;86.59
55757;BME280;41676;44.610;44.078;2023-02-28T02:38:53;101063.44;;;3.15;85.11
55757;BME280;41676;44.610;44.078;2023-02-28T02:44:05;101108.91;;;3.29;85.59
55757;BME280;41676;44.610;44.078;2023-02-28T02:49:10;101116.88;;;3.14;85.05
55757;BME280;41676;44.610;44.078;2023-02-28T02:54:18;101095.84;;;3.02;85.36
55757;BME280;41676;44.610;44.078;2023-02-28T02:59:22;101090.72;;;2.73;85.38
55757;BME280;41676;44.610;44.078;2023-02-28T03:04:27;101099.22;;;2.77;85.64
55757;BME280;41676;44.610;44.078;2023-02-28T03:09:33;101045.22;;;2.33;85.17
55757;BME280;41676;44.610;44.078;2023-02-28T03:14:43;101111.72;;;2.73;86.43
55757;BME280;41676;44.610;44.078;2023-02-28T03:20:01;101134.09;;;2.79;86.71
55757;BME280;41676;44.610;44.078;2023-02-28T03:30:30;101103.78;;;2.87;86.19
55757;BME280;41676;44.610;44.078;2023-02-28T03:35:43;101061.09;;;2.44;85.92
55757;BME280;41676;44.610;44.078;2023-02-28T03:40:53;101065.72;;;2.40;86.17
55757;BME280;41676;44.610;44.078;2023-02-28T03:45:58;101097.53;;;2.48;86.26
55757;BME280;41676;44.610;44.078;2023-02-28T03:51:01;101096.41;;;2.53;86.30
55757;BME280;41676;44.610;44.078;2023-02-28T03:56:16;101097.69;;;2.60;87.96
55757;BME280;41676;44.610;44.078;2023-02-28T04:01:24;101109.53;;;2.80;87.96
55757;BME280;41676;44.610;44.078;2023-02-28T04:06:26;100994.50;;;1.92;85.41
55757;BME280;41676;44.610;44.078;2023-02-28T04:11:36;100960.34;;;1.79;86.57
55757;BME280;41676;44.610;44.078;2023-02-28T04:16:40;101127.34;;;2.74;85.35
55757;BME280;41676;44.610;44.078;2023-02-28T04:21:44;101087.19;;;2.60;85.61
55757;BME280;41676;44.610;44.078;2023-02-28T04:26:47;101124.31;;;2.81;85.37
55757;BME280;41676;44.610;44.078;2023-02-28T04:31:48;101035.13;;;2.26;85.04
55757;BME280;41676;44.610;44.078;2023-02-28T04:36:49;101124.13;;;2.84;85.48
55757;BME280;41676;44.610;44.078;2023-02-28T04:41:50;101106.69;;;2.83;85.49
55757;BME280;41676;44.610;44.078;2023-02-28T04:46:51;101021.97;;;2.41;85.53
55757;BME280;41676;44.610;44.078;2023-02-28T04:51:52;101106.88;;;3.07;85.41
55757;BME280;41676;44.610;44.078;2023-02-28T04:56:53;101018.94;;;2.87;85.34
55757;BME280;41676;44.610;44.078;2023-02-28T05:01:55;101097.81;;;3.76;84.73
55757;BME280;41676;44.610;44.078;2023-02-28T05:06:55;101053.75;;;3.80;83.84
55757;BME280;41676;44.610;44.078;2023-02-28T05:11:56;101126.03;;;4.49;83.51
55757;BME280;41676;44.610;44.078;2023-02-28T05:16:57;101055.66;;;4.40;83.09
55757;BME280;41676;44.610;44.078;2023-02-28T05:21:58;101021.59;;;4.50;81.68
55757;BME280;41676;44.610;44.078;2023-02-28T05:26:59;101067.97;;;5.34;80.85
55757;BME280;41676;44.610;44.078;2023-02-28T05:32:00;101128.25;;;6.19;79.24
55757;BME280;41676;44.610;44.078;2023-02-28T05:37:00;101050.31;;;6.15;78.42
55757;BME280;41676;44.610;44.078;2023-02-28T05:42:01;101043.00;;;6.18;78.09
55757;BME280;41676;44.610;44.078;2023-02-28T05:47:02;101095.22;;;6.58;77.76
55757;BME280;41676;44.610;44.078;2023-02-28T05:52:03;101112.06;;;6.90;77.11
55757;BME280;41676;44.610;44.078;2023-02-28T05:57:04;101055.97;;;6.65;77.17
55757;BME280;41676;44.610;44.078;2023-02-28T06:02:06;100947.47;;;6.04;76.45
55757;BME280;41676;44.610;44.078;2023-02-28T06:07:11;101081.50;;;6.97;76.68
55757;BME280;41676;44.610;44.078;2023-02-28T06:12:12;101002.16;;;6.77;76.02
55757;BME280;41676;44.610;44.078;2023-02-28T06:17:12;101033.44;;;7.45;74.74
55757;BME280;41676;44.610;44.078;2023-02-28T06:22:13;101076.81;;;8.24;73.50
55757;BME280;41676;44.610;44.078;2023-02-28T06:27:14;101084.34;;;8.89;72.59
55757;BME280;41676;44.610;44.078;2023-02-28T06:32:15;101084.75;;;9.43;70.76
55757;BME280;41676;44.610;44.078;2023-02-28T06:37:16;101064.66;;;9.87;70.07
55757;BME280;41676;44.610;44.078;2023-02-28T06:42:17;101002.91;;;9.85;68.80
55757;BME280;41676;44.610;44.078;2023-02-28T06:47:17;101039.88;;;10.51;67.48
55757;BME280;41676;44.610;44.078;2023-02-28T06:52:18;101050.59;;;10.95;66.14
55757;BME280;41676;44.610;44.078;2023-02-28T06:57:19;101014.94;;;11.32;64.47
55757;BME280;41676;44.610;44.078;2023-02-28T07:02:19;101023.19;;;11.81;63.35
55757;BME280;41676;44.610;44.078;2023-02-28T07:07:20;101031.56;;;12.29;61.73
55757;BME280;41676;44.610;44.078;2023-02-28T07:12:21;100938.97;;;12.06;60.94
55757;BME280;41676;44.610;44.078;2023-02-28T07:17:22;101016.16;;;12.73;60.51
55757;BME280;41676;44.610;44.078;2023-02-28T07:22:23;100956.69;;;12.56;59.26
55757;BME280;41676;44.610;44.078;2023-02-28T07:27:25;101005.63;;;13.21;58.67
55757;BME280;41676;44.610;44.078;2023-02-28T07:32:28;100995.75;;;13.46;57.68
55757;BME280;41676;44.610;44.078;2023-02-28T07:37:28;100935.38;;;13.53;57.09
55757;BME280;41676;44.610;44.078;2023-02-28T07:42:32;100918.56;;;13.76;56.14
55757;BME280;41676;44.610;44.078;2023-02-28T07:47:32;100965.53;;;14.55;55.54
55757;BME280;41676;44.610;44.078;2023-02-28T07:52:33;100965.47;;;15.01;54.97
55757;BME280;41676;44.610;44.078;2023-02-28T07:57:34;100876.69;;;14.83;54.11
55757;BME280;41676;44.610;44.078;2023-02-28T08:02:35;100896.09;;;15.44;53.52
55757;BME280;41676;44.610;44.078;2023-02-28T08:07:35;100874.06;;;15.64;51.59
55757;BME280;41676;44.610;44.078;2023-02-28T08:12:36;100939.28;;;16.43;51.11
55757;BME280;41676;44.610;44.078;2023-02-28T08:17:37;100924.25;;;16.71;50.10
55757;BME280;41676;44.610;44.078;2023-02-28T08:22:38;100838.72;;;16.54;47.74
55757;BME280;41676;44.610;44.078;2023-02-28T08:27:39;100926.28;;;17.60;47.46
55757;BME280;41676;44.610;44.078;2023-02-28T08:32:40;100725.88;;;16.62;45.70
55757;BME280;41676;44.610;44.078;2023-02-28T08:37:41;100846.47;;;17.47;45.47
55757;BME280;41676;44.610;44.078;2023-02-28T08:42:42;100848.00;;;17.76;44.46
55757;BME280;41676;44.610;44.078;2023-02-28T08:47:42;100918.47;;;18.59;44.38
55757;BME280;41676;44.610;44.078;2023-02-28T08:52:43;100896.13;;;18.72;43.26
55757;BME280;41676;44.610;44.078;2023-02-28T08:57:44;100899.66;;;18.73;41.53
55757;BME280;41676;44.610;44.078;2023-02-28T09:02:45;100892.22;;;18.75;41.00
55757;BME280;41676;44.610;44.078;2023-02-28T09:07:46;100829.06;;;18.51;41.24
55757;BME280;41676;44.610;44.078;2023-02-28T09:12:47;100824.50;;;18.91;40.76
55757;BME280;41676;44.610;44.078;2023-02-28T09:17:47;100772.78;;;18.76;40.14
55757;BME280;41676;44.610;44.078;2023-02-28T09:22:48;100804.50;;;19.19;40.00
55757;BME280;41676;44.610;44.078;2023-02-28T09:27:49;100817.41;;;19.55;39.67
55757;BME280;41676;44.610;44.078;2023-02-28T09:32:49;100838.44;;;19.78;38.72
55757;BME280;41676;44.610;44.078;2023-02-28T09:37:54;100789.00;;;19.91;38.39
55757;BME280;41676;44.610;44.078;2023-02-28T09:42:55;100800.53;;;20.04;36.50
55757;BME280;41676;44.610;44.078;2023-02-28T09:48:14;100775.94;;;20.19;36.45
55757;BME280;41676;44.610;44.078;2023-02-28T09:53:32;100768.66;;;20.20;35.89
55757;BME280;41676;44.610;44.078;2023-02-28T10:03:47;100765.28;;;20.24;36.16
55757;BME280;41676;44.610;44.078;2023-02-28T10:09:06;100776.25;;;20.29;35.21
55757;BME280;41676;44.610;44.078;2023-02-28T10:14:17;100762.81;;;20.66;37.98
55757;BME280;41676;44.610;44.078;2023-02-28T10:24:28;100750.91;;;20.74;32.71
55757;BME280;41676;44.610;44.078;2023-02-28T10:29:32;100735.25;;;20.64;33.88
55757;BME280;41676;44.610;44.078;2023-02-28T10:34:33;100733.72;;;20.87;34.06
55757;BME280;41676;44.610;44.078;2023-02-28T10:39:45;100699.22;;;20.52;32.00
55757;BME280;41676;44.610;44.078;2023-02-28T10:44:49;100719.25;;;20.81;33.22
55757;BME280;41676;44.610;44.078;2023-02-28T10:49:50;100700.97;;;20.65;33.05
55757;BME280;41676;44.610;44.078;2023-02-28T10:55:19;100714.72;;;20.93;32.73
55757;BME280;41676;44.610;44.078;2023-02-28T11:00:32;100689.94;;;21.15;30.54
55757;BME280;41676;44.610;44.078;2023-02-28T11:05:35;100636.16;;;20.83;31.28
55757;BME280;41676;44.610;44.078;2023-02-28T11:10:37;100692.97;;;21.07;32.19
55757;BME280;41676;44.610;44.078;2023-02-28T11:15:38;100645.63;;;20.74;31.42
55757;BME280;41676;44.610;44.078;2023-02-28T11:20:39;100668.66;;;21.07;30.91
55757;BME280;41676;44.610;44.078;2023-02-28T11:25:50;100662.94;;;21.15;30.46
55757;BME280;41676;44.610;44.078;2023-02-28T11:36:18;100638.63;;;21.15;30.32
55757;BME280;41676;44.610;44.078;2023-02-28T11:41:45;100687.84;;;21.59;29.41
55757;BME280;41676;44.610;44.078;2023-02-28T11:46:56;100678.47;;;21.73;29.61
55757;BME280;41676;44.610;44.078;2023-02-28T11:52:40;100677.66;;;21.73;30.50
55757;BME280;41676;44.610;44.078;2023-02-28T12:03:16;100667.47;;;21.14;29.93
55757;BME280;41676;44.610;44.078;2023-02-28T12:29:46;100646.06;;;20.71;30.25
55757;BME280;41676;44.610;44.078;2023-02-28T12:35:00;100661.00;;;20.73;30.92
55757;BME280;41676;44.610;44.078;2023-02-28T12:40:09;100556.16;;;20.03;31.18
55757;BME280;41676;44.610;44.078;2023-02-28T12:45:20;100659.13;;;20.74;31.30
55757;BME280;41676;44.610;44.078;2023-02-28T12:50:22;100651.28;;;20.84;31.18
55757;BME280;41676;44.610;44.078;2023-02-28T12:55:30;100619.22;;;20.58;31.88
55757;BME280;41676;44.610;44.078;2023-02-28T13:00:36;100623.44;;;20.54;32.10
55757;BME280;41676;44.610;44.078;2023-02-28T13:06:05;100642.50;;;20.59;32.71
55757;BME280;41676;44.610;44.078;2023-02-28T13:11:45;100626.72;;;20.19;33.11
55757;BME280;41676;44.610;44.078;2023-02-28T13:17:12;100652.72;;;20.13;34.38
55757;BME280;41676;44.610;44.078;2023-02-28T13:32:33;100641.94;;;19.38;37.17
55757;BME280;41676;44.610;44.078;2023-02-28T13:37:37;100511.97;;;18.29;38.66
55757;BME280;41676;44.610;44.078;2023-02-28T13:47:52;100661.38;;;18.77;40.72
55757;BME280;41676;44.610;44.078;2023-02-28T13:59:03;100680.97;;;18.25;42.86
55757;BME280;41676;44.610;44.078;2023-02-28T14:09:46;100684.28;;;17.54;48.88
55757;BME280;41676;44.610;44.078;2023-02-28T14:19:49;100686.47;;;17.11;49.25
55757;BME280;41676;44.610;44.078;2023-02-28T14:40:58;100678.72;;;16.33;53.13
55757;BME280;41676;44.610;44.078;2023-02-28T14:46:02;100545.44;;;15.23;53.95
55757;BME280;41676;44.610;44.078;2023-02-28T14:51:04;100705.81;;;16.17;53.80
55757;BME280;41676;44.610;44.078;2023-02-28T14:56:05;100693.44;;;15.88;53.84
55757;BME280;41676;44.610;44.078;2023-02-28T15:01:10;100700.38;;;15.82;54.85
55757;BME280;41676;44.610;44.078;2023-02-28T15:06:14;100709.28;;;15.83;53.73
55757;BME280;41676;44.610;44.078;2023-02-28T15:11:18;100682.16;;;15.28;54.54
55757;BME280;41676;44.610;44.078;2023-02-28T15:16:22;100727.94;;;15.33;54.92
55757;BME280;41676;44.610;44.078;2023-02-28T15:21:29;100745.81;;;15.11;56.21
55757;BME280;41676;44.610;44.078;2023-02-28T15:26:37;100728.41;;;14.71;57.98
55757;BME280;41676;44.610;44.078;2023-02-28T15:32:17;100713.81;;;14.44;58.91
55757;BME280;41676;44.610;44.078;2023-02-28T15:37:32;100762.59;;;14.46;60.57
55757;BME280;41676;44.610;44.078;2023-02-28T15:42:33;100740.06;;;14.10;58.38
55757;BME280;41676;44.610;44.078;2023-02-28T15:47:34;100761.78;;;14.07;59.01
55757;BME280;41676;44.610;44.078;2023-02-28T15:52:44;100709.78;;;13.57;60.79
55757;BME280;41676;44.610;44.078;2023-02-28T15:57:48;100759.22;;;13.76;60.75
55757;BME280;41676;44.610;44.078;2023-02-28T16:02:50;100767.34;;;13.60;60.61
55757;BME280;41676;44.610;44.078;2023-02-28T16:07:51;100697.41;;;13.10;60.10
55757;BME280;41676;44.610;44.078;2023-02-28T16:12:56;100742.00;;;13.24;60.87
55757;BME280;41676;44.610;44.078;2023-02-28T16:17:58;100748.16;;;13.33;60.07
55757;BME280;41676;44.610;44.078;2023-02-28T16:22:58;100709.06;;;13.09;60.00
55757;BME280;41676;44.610;44.078;2023-02-28T16:28:02;100762.13;;;13.43;59.96
55757;BME280;41676;44.610;44.078;2023-02-28T16:33:04;100740.75;;;13.04;59.75
55757;BME280;41676;44.610;44.078;2023-02-28T16:38:06;100681.84;;;12.60;60.51
55757;BME280;41676;44.610;44.078;2023-02-28T16:43:13;100734.81;;;12.94;61.25
55757;BME280;41676;44.610;44.078;2023-02-28T16:48:16;100724.50;;;12.91;60.71
55757;BME280;41676;44.610;44.078;2023-02-28T16:53:17;100698.41;;;12.78;59.94
55757;BME280;41676;44.610;44.078;2023-02-28T16:58:18;100741.28;;;13.08;58.96
55757;BME280;41676;44.610;44.078;2023-02-28T17:03:26;100699.13;;;12.95;57.14
55757;BME280;41676;44.610;44.078;2023-02-28T17:08:28;100659.56;;;12.84;56.94
55757;BME280;41676;44.610;44.078;2023-02-28T17:13:30;100718.16;;;13.31;55.49
55757;BME280;41676;44.610;44.078;2023-02-28T17:18:32;100734.56;;;13.43;54.69
55757;BME280;41676;44.610;44.078;2023-02-28T17:23:35;100643.44;;;13.00;54.18
55757;BME280;41676;44.610;44.078;2023-02-28T17:28:35;100699.66;;;13.30;53.96
55757;BME280;41676;44.610;44.078;2023-02-28T17:33:36;100721.88;;;13.45;53.51
55757;BME280;41676;44.610;44.078;2023-02-28T17:38:37;100659.75;;;13.05;53.78
55757;BME280;41676;44.610;44.078;2023-02-28T17:43:40;100672.09;;;13.06;53.17
55757;BME280;41676;44.610;44.078;2023-02-28T17:48:41;100666.44;;;13.01;53.40
55757;BME280;41676;44.610;44.078;2023-02-28T17:53:42;100706.72;;;13.14;53.26
55757;BME280;41676;44.610;44.078;2023-02-28T17:58:43;100634.97;;;12.65;53.40
55757;BME280;41676;44.610;44.078;2023-02-28T18:03:46;100620.13;;;12.40;53.16
55757;BME280;41676;44.610;44.078;2023-02-28T18:08:48;100714.78;;;12.98;53.07
55757;BME280;41676;44.610;44.078;2023-02-28T18:13:53;100724.75;;;13.04;53.18
55757;BME280;41676;44.610;44.078;2023-02-28T18:18:54;100699.22;;;12.87;53.17
55757;BME280;41676;44.610;44.078;2023-02-28T18:23:56;100704.19;;;12.90;53.31
55757;BME280;41676;44.610;44.078;2023-02-28T18:28:57;100549.72;;;11.95;53.09
55757;BME280;41676;44.610;44.078;2023-02-28T18:33:58;100706.03;;;12.89;52.92
55757;BME280;41676;44.610;44.078;2023-02-28T18:38:59;100714.78;;;12.98;53.01
55757;BME280;41676;44.610;44.078;2023-02-28T18:44:00;100726.47;;;12.97;53.25
55757;BME280;41676;44.610;44.078;2023-02-28T18:49:01;100722.50;;;12.93;53.21
55757;BME280;41676;44.610;44.078;2023-02-28T18:54:02;100696.94;;;12.67;53.82
55757;BME280;41676;44.610;44.078;2023-02-28T18:59:03;100717.41;;;12.75;54.21
55757;BME280;41676;44.610;44.078;2023-02-28T19:04:04;100728.56;;;12.78;53.83
55757;BME280;41676;44.610;44.078;2023-02-28T19:09:06;100729.91;;;12.74;54.41
55757;BME280;41676;44.610;44.078;2023-02-28T19:14:07;100653.28;;;12.29;54.19
55757;BME280;41676;44.610;44.078;2023-02-28T19:19:08;100700.28;;;12.69;54.48
55757;BME280;41676;44.610;44.078;2023-02-28T19:24:09;100697.97;;;12.66;54.60
55757;BME280;41676;44.610;44.078;2023-02-28T19:29:10;100687.88;;;12.45;55.29
55757;BME280;41676;44.610;44.078;2023-02-28T19:34:11;100647.16;;;12.20;55.41
55757;BME280;41676;44.610;44.078;2023-02-28T19:39:11;100636.66;;;12.27;55.27
55757;BME280;41676;44.610;44.078;2023-02-28T19:44:12;100692.88;;;12.40;55.72
55757;BME280;41676;44.610;44.078;2023-02-28T19:49:13;100608.78;;;11.90;56.47
55757;BME280;41676;44.610;44.078;2023-02-28T19:54:14;100555.78;;;11.48;56.63
55757;BME280;41676;44.610;44.078;2023-02-28T19:59:14;100593.66;;;11.74;57.00
55757;BME280;41676;44.610;44.078;2023-02-28T20:04:15;100569.91;;;11.56;57.13
55757;BME280;41676;44.610;44.078;2023-02-28T20:09:16;100669.13;;;12.22;56.64
55757;BME280;41676;44.610;44.078;2023-02-28T20:14:17;100643.53;;;12.13;56.51
55757;BME280;41676;44.610;44.078;2023-02-28T20:19:18;100666.78;;;12.27;56.56
55757;BME280;41676;44.610;44.078;2023-02-28T20:24:19;100675.13;;;12.24;56.60
55757;BME280;41676;44.610;44.078;2023-02-28T20:29:25;100660.81;;;12.17;56.93
55757;BME280;41676;44.610;44.078;2023-02-28T20:34:25;100649.06;;;11.87;57.55
55757;BME280;41676;44.610;44.078;2023-02-28T20:39:26;100634.94;;;11.70;58.28
55757;BME280;41676;44.610;44.078;2023-02-28T20:44:27;100617.94;;;11.63;58.10
55757;BME280;41676;44.610;44.078;2023-02-28T20:49:28;100616.63;;;11.51;57.85
55757;BME280;41676;44.610;44.078;2023-02-28T20:54:29;100687.81;;;11.90;58.29
55757;BME280;41676;44.610;44.078;2023-02-28T20:59:30;100688.31;;;11.77;59.08
55757;BME280;41676;44.610;44.078;2023-02-28T21:04:31;100642.75;;;11.47;59.27
55757;BME280;41676;44.610;44.078;2023-02-28T21:09:32;100642.75;;;11.39;59.60
55757;BME280;41676;44.610;44.078;2023-02-28T21:14:32;100696.47;;;11.59;60.01
55757;BME280;41676;44.610;44.078;2023-02-28T21:19:33;100686.44;;;11.36;60.22
55757;BME280;41676;44.610;44.078;2023-02-28T21:24:34;100706.72;;;11.21;61.60
55757;BME280;41676;44.610;44.078;2023-02-28T21:29:35;100713.31;;;11.01;62.52
55757;BME280;41676;44.610;44.078;2023-02-28T21:34:35;100705.91;;;10.70;64.11
55757;BME280;41676;44.610;44.078;2023-02-28T21:39:36;100705.94;;;10.44;65.37
55757;BME280;41676;44.610;44.078;2023-02-28T21:44:37;100682.03;;;9.92;67.09
55757;BME280;41676;44.610;44.078;2023-02-28T21:49:38;100668.44;;;9.51;69.67
55757;BME280;41676;44.610;44.078;2023-02-28T21:54:38;100690.53;;;9.16;70.91
55757;BME280;41676;44.610;44.078;2023-02-28T21:59:39;100737.13;;;9.08;72.90
55757;BME280;41676;44.610;44.078;2023-02-28T22:04:40;100696.25;;;8.65;74.10
55757;BME280;41676;44.610;44.078;2023-02-28T22:09:41;100702.59;;;8.45;74.99
55757;BME280;41676;44.610;44.078;2023-02-28T22:14:42;100734.50;;;8.53;75.20
55757;BME280;41676;44.610;44.078;2023-02-28T22:19:44;100724.50;;;8.28;76.09
55757;BME280;41676;44.610;44.078;2023-02-28T22:24:45;100734.28;;;8.17;76.85
55757;BME280;41676;44.610;44.078;2023-02-28T22:29:46;100722.09;;;7.87;77.88
55757;BME280;41676;44.610;44.078;2023-02-28T22:34:50;100717.91;;;7.65;81.09
55757;BME280;41676;44.610;44.078;2023-02-28T22:39:51;100749.09;;;7.71;79.41
55757;BME280;41676;44.610;44.078;2023-02-28T22:44:52;100751.31;;;7.76;79.70
55757;BME280;41676;44.610;44.078;2023-02-28T22:49:53;100755.34;;;7.70;79.67
55757;BME280;41676;44.610;44.078;2023-02-28T22:54:53;100748.81;;;7.55;80.65
55757;BME280;41676;44.610;44.078;2023-02-28T22:59:54;100742.28;;;7.40;80.82
55757;BME280;41676;44.610;44.078;2023-02-28T23:04:55;100749.66;;;7.36;82.29
55757;BME280;41676;44.610;44.078;2023-02-28T23:09:56;100724.00;;;7.07;82.10
55757;BME280;41676;44.610;44.078;2023-02-28T23:14:56;100756.84;;;7.24;83.02
55757;BME280;41676;44.610;44.078;2023-02-28T23:19:57;100716.34;;;7.04;82.99
55757;BME280;41676;44.610;44.078;2023-02-28T23:24:58;100657.16;;;6.57;83.81
55757;BME280;41676;44.610;44.078;2023-02-28T23:29:59;100770.16;;;7.13;83.81
55757;BME280;41676;44.610;44.078;2023-02-28T23:35:00;100730.03;;;6.79;83.96
55757;BME280;41676;44.610;44.078;2023-02-28T23:40:01;100765.22;;;6.89;84.73
55757;BME280;41676;44.610;44.078;2023-02-28T23:45:03;100756.97;;;6.73;85.28
55757;BME280;41676;44.610;44.078;2023-02-28T23:50:04;100782.72;;;6.80;85.37
55757;BME280;41676;44.610;44.078;2023-02-28T23:55:05;100704.66;;;6.57;84.64
